Time,TemperatureF,DewpointF,PressureIn,WindDirection,WindDirectionDegrees,WindSpeedMPH,WindSpeedGustMPH,Humidity,HourlyPrecipIn,Conditions,Clouds,dailyrainin,SoftwareType,DateUTC
2013-02-25 00:02:00,25.0,23.0,30.04,East,90,7.0,-999.0,92,-99.99,,,-99.99,,2013-02-25 06:02:00,
2013-02-25 00:11:00,25.0,23.0,30.04,East,90,7.0,-999.0,92,-99.99,,,-99.99,,2013-02-25 06:11:00,
2013-02-25 00:21:00,25.0,23.0,30.05,East,90,5.0,-999.0,92,-99.99,,,-99.99,,2013-02-25 06:21:00,
2013-02-25 00:31:00,25.0,23.0,30.05,East,90,5.0,-999.0,92,-99.99,,,-99.99,,2013-02-25 06:31:00,
2013-02-25 00:42:00,27.0,23.0,30.05,East,80,5.0,-999.0,86,-99.99,,,-99.99,,2013-02-25 06:42:00,
2013-02-25 00:52:00,27.0,23.0,30.06,East,80,3.0,-999.0,86,-99.99,,,-99.99,,2013-02-25 06:52:00,
2013-02-25 01:01:00,27.0,23.0,30.06,East,80,3.0,-999.0,86,-99.99,,,-99.99,,2013-02-25 07:01:00,
2013-02-25 01:11:00,27.0,23.0,30.06,East,80,3.0,-999.0,86,-99.99,,,-99.99,,2013-02-25 07:11:00,
2013-02-25 01:21:00,25.0,21.0,30.06,ENE,70,5.0,-999.0,85,-99.99,,,-99.99,,2013-02-25 07:21:00,
2013-02-25 01:31:00,25.0,23.0,30.05,East,80,3.0,-999.0,92,-99.99,,,-99.99,,2013-02-25 07:31:00,
2013-02-25 01:42:00,23.0,21.0,30.05,ENE,70,3.0,-999.0,92,-99.99,,,-99.99,,2013-02-25 07:42:00,
2013-02-25 01:52:00,23.0,21.0,30.05,NNE,30,5.0,-999.0,92,-99.99,,,-99.99,,2013-02-25 07:52:00,
2013-02-25 02:01:00,23.0,21.0,30.05,NNE,30,5.0,-999.0,92,-99.99,,,-99.99,,2013-02-25 08:01:00,
2013-02-25 02:11:00,23.0,21.0,30.05,NNE,30,5.0,-999.0,92,-99.99,,,-99.99,,2013-02-25 08:11:00,
2013-02-25 02:21:00,21.0,19.0,30.05,NE,40,5.0,-999.0,92,-99.99,,,-99.99,,2013-02-25 08:21:00,
2013-02-25 02:32:00,21.0,21.0,30.04,ENE,70,3.0,-999.0,100,-99.99,,,-99.99,,2013-02-25 08:32:00,
2013-02-25 02:42:00,18.0,16.0,30.03,East,80,3.0,-999.0,92,-99.99,,,-99.99,,2013-02-25 08:42:00,
2013-02-25 02:52:00,18.0,18.0,30.03,East,90,7.0,-999.0,100,-99.99,,,-99.99,,2013-02-25 08:52:00,
2013-02-25 03:21:00,23.0,23.0,30.02,East,80,5.0,-999.0,100,-99.99,,,-99.99,,2013-02-25 09:21:00,
2013-02-25 03:32:00,23.0,19.0,30.03,NE,50,3.0,-999.0,85,-99.99,,,-99.99,,2013-02-25 09:32:00,
2013-02-25 03:42:00,23.0,21.0,30.04,North,0,0.0,-999.0,92,-99.99,,,-99.99,,2013-02-25 09:42:00,
2013-02-25 03:52:00,21.0,21.0,30.04,North,0,0.0,-999.0,100,-99.99,,,-99.99,,2013-02-25 09:52:00,
2013-02-25 04:01:00,21.0,21.0,30.04,North,0,0.0,-999.0,100,-99.99,,,-99.99,,2013-02-25 10:01:00,
2013-02-25 04:11:00,21.0,21.0,30.04,North,0,0.0,-999.0,100,-99.99,,,-99.99,,2013-02-25 10:11:00,
2013-02-25 04:21:00,21.0,19.0,30.03,East,100,6.0,-999.0,92,-99.99,,,-99.99,,2013-02-25 10:21:00,
2013-02-25 04:32:00,19.0,19.0,30.02,East,100,6.0,-999.0,100,-99.99,,,-99.99,,2013-02-25 10:32:00,
2013-02-25 04:42:00,21.0,19.0,30.02,East,90,8.0,-999.0,92,-99.99,,,-99.99,,2013-02-25 10:42:00,
2013-02-25 04:52:00,21.0,19.0,30.02,East,90,8.0,-999.0,92,-99.99,,,-99.99,,2013-02-25 10:52:00,
2013-02-25 05:01:00,21.0,19.0,30.02,East,90,8.0,-999.0,92,-99.99,,,-99.99,,2013-02-25 11:01:00,
2013-02-25 05:11:00,21.0,19.0,30.02,East,90,8.0,-999.0,92,-99.99,,,-99.99,,2013-02-25 11:11:00,
2013-02-25 05:21:00,23.0,21.0,30.01,East,80,6.0,-999.0,92,-99.99,,,-99.99,,2013-02-25 11:21:00,
2013-02-25 05:32:00,23.0,21.0,30.02,ENE,70,5.0,-999.0,92,-99.99,,,-99.99,,2013-02-25 11:32:00,
2013-02-25 05:42:00,23.0,21.0,30.02,North,0,0.0,-999.0,92,-99.99,,,-99.99,,2013-02-25 11:42:00,
2013-02-25 05:52:00,23.0,21.0,30.02,North,0,0.0,-999.0,92,-99.99,,,-99.99,,2013-02-25 11:52:00,
2013-02-25 06:02:00,23.0,21.0,30.02,North,0,0.0,-999.0,92,-99.99,,,-99.99,,2013-02-25 12:02:00,
2013-02-25 06:11:00,23.0,21.0,30.02,North,0,0.0,-999.0,92,-99.99,,,-99.99,,2013-02-25 12:11:00,
2013-02-25 06:21:00,21.0,21.0,30.01,ENE,70,3.0,-999.0,100,-99.99,,,-99.99,,2013-02-25 12:21:00,
2013-02-25 06:32:00,21.0,21.0,30.01,ENE,70,5.0,-999.0,100,-99.99,,,-99.99,,2013-02-25 12:32:00,
2013-02-25 06:42:00,21.0,21.0,30.01,NE,50,5.0,-999.0,100,-99.99,,,-99.99,,2013-02-25 12:42:00,
2013-02-25 06:55:00,19.0,19.0,30.01,NE,40,6.0,-999.0,100,-99.99,,,-99.99,,2013-02-25 12:55:00,
2013-02-25 07:02:00,19.0,19.0,30.01,NE,40,6.0,-999.0,100,-99.99,,,-99.99,,2013-02-25 13:02:00,
2013-02-25 07:12:00,19.0,19.0,30.01,NE,40,6.0,-999.0,100,-99.99,,,-99.99,,2013-02-25 13:12:00,
2013-02-25 07:22:00,21.0,21.0,30.01,ENE,70,3.0,-999.0,100,-99.99,,,-99.99,,2013-02-25 13:22:00,
2013-02-25 07:32:00,19.0,19.0,30.01,ENE,70,5.0,-999.0,100,-99.99,,,-99.99,,2013-02-25 13:32:00,
2013-02-25 07:42:00,21.0,21.0,30.01,ENE,70,5.0,-999.0,100,-99.99,,,-99.99,,2013-02-25 13:42:00,
2013-02-25 07:52:00,21.0,21.0,30.01,ENE,60,3.0,-999.0,100,-99.99,,,-99.99,,2013-02-25 13:52:00,
2013-02-25 08:03:00,21.0,21.0,30.01,ENE,60,3.0,-999.0,100,-99.99,,,-99.99,,2013-02-25 14:03:00,
2013-02-25 08:22:00,21.0,21.0,30.02,NE,40,3.0,-999.0,100,-99.99,,,-99.99,,2013-02-25 14:22:00,
2013-02-25 08:32:00,21.0,19.0,30.01,NNE,20,3.0,-999.0,92,-99.99,,,-99.99,,2013-02-25 14:32:00,
2013-02-25 08:42:00,23.0,21.0,30.01,NNE,30,5.0,-999.0,92,-99.99,,,-99.99,,2013-02-25 14:42:00,
2013-02-25 08:52:00,25.0,21.0,30.01,NE,50,6.0,-999.0,85,-99.99,,,-99.99,,2013-02-25 14:52:00,
2013-02-25 09:02:00,25.0,21.0,30.01,NE,50,6.0,-999.0,85,-99.99,,,-99.99,,2013-02-25 15:02:00,
2013-02-25 09:11:00,25.0,21.0,30.01,NE,50,6.0,-999.0,85,-99.99,,,-99.99,,2013-02-25 15:11:00,
2013-02-25 09:21:00,27.0,21.0,30.02,NE,40,5.0,-999.0,79,-99.99,,,-99.99,,2013-02-25 15:21:00,
2013-02-25 09:32:00,27.0,23.0,30.01,NE,50,6.0,-999.0,86,-99.99,,,-99.99,,2013-02-25 15:32:00,
2013-02-25 09:42:00,27.0,23.0,30.01,NE,50,6.0,-999.0,86,-99.99,,,-99.99,,2013-02-25 15:42:00,
2013-02-25 09:52:00,28.0,23.0,30.00,NE,50,7.0,-999.0,79,-99.99,,,-99.99,,2013-02-25 15:52:00,
2013-02-25 10:02:00,28.0,23.0,30.00,NE,50,7.0,-999.0,79,-99.99,,,-99.99,,2013-02-25 16:02:00,
2013-02-25 10:11:00,28.0,23.0,30.00,NE,50,7.0,-999.0,79,-99.99,,,-99.99,,2013-02-25 16:11:00,
2013-02-25 10:21:00,30.0,25.0,30.01,ENE,70,6.0,-999.0,80,-99.99,,,-99.99,,2013-02-25 16:21:00,
2013-02-25 10:32:00,30.0,25.0,30.01,ENE,70,5.0,-999.0,80,-99.99,,,-99.99,,2013-02-25 16:32:00,
2013-02-25 10:42:00,32.0,25.0,30.02,East,80,6.0,-999.0,74,-99.99,,,-99.99,,2013-02-25 16:42:00,
2013-02-25 10:52:00,34.0,27.0,30.00,East,80,8.0,-999.0,74,-99.99,,,-99.99,,2013-02-25 16:52:00,
2013-02-25 11:01:00,34.0,27.0,30.00,East,80,8.0,-999.0,74,-99.99,,,-99.99,,2013-02-25 17:01:00,
2013-02-25 11:11:00,34.0,27.0,30.00,East,80,8.0,-999.0,74,-99.99,,,-99.99,,2013-02-25 17:11:00,
2013-02-25 11:21:00,36.0,27.0,29.99,ENE,60,7.0,-999.0,69,-99.99,,,-99.99,,2013-02-25 17:21:00,
2013-02-25 11:31:00,36.0,27.0,29.99,ENE,70,8.0,-999.0,69,-99.99,,,-99.99,,2013-02-25 17:31:00,
2013-02-25 11:42:00,37.0,27.0,29.99,ENE,60,7.0,-999.0,64,-99.99,,,-99.99,,2013-02-25 17:42:00,
2013-02-25 11:52:00,36.0,28.0,29.99,ENE,60,7.0,-999.0,74,-99.99,,,-99.99,,2013-02-25 17:52:00,
2013-02-25 12:01:00,36.0,28.0,29.99,ENE,60,7.0,-999.0,74,-99.99,,,-99.99,,2013-02-25 18:01:00,
2013-02-25 12:12:00,36.0,28.0,29.99,ENE,60,7.0,-999.0,74,-99.99,,,-99.99,,2013-02-25 18:12:00,
2013-02-25 12:21:00,39.0,28.0,29.97,ENE,70,9.0,-999.0,64,-99.99,,,-99.99,,2013-02-25 18:21:00,
2013-02-25 12:32:00,39.0,28.0,29.96,NE,50,13.0,-999.0,64,-99.99,,,-99.99,,2013-02-25 18:32:00,
2013-02-25 12:42:00,39.0,28.0,29.96,NE,50,9.0,-999.0,64,-99.99,,,-99.99,,2013-02-25 18:42:00,
2013-02-25 12:52:00,37.0,28.0,29.96,NE,50,9.0,-999.0,69,-99.99,,,-99.99,,2013-02-25 18:52:00,
2013-02-25 13:01:00,37.0,28.0,29.96,NE,50,9.0,-999.0,69,-99.99,,,-99.99,,2013-02-25 19:01:00,
2013-02-25 13:11:00,37.0,28.0,29.96,NE,50,9.0,-999.0,69,-99.99,,,-99.99,,2013-02-25 19:11:00,
2013-02-25 13:21:00,39.0,28.0,29.91,NE,50,13.0,-999.0,64,-99.99,,,-99.99,,2013-02-25 19:21:00,
2013-02-25 13:31:00,37.0,28.0,29.90,NE,50,12.0,-999.0,69,-99.99,,,-99.99,,2013-02-25 19:31:00,
2013-02-25 13:42:00,37.0,28.0,29.91,NE,50,12.0,-999.0,69,-99.99,,,-99.99,,2013-02-25 19:42:00,
2013-02-25 13:52:00,39.0,28.0,29.90,NE,50,15.0,-999.0,64,-99.99,,,-99.99,,2013-02-25 19:52:00,
2013-02-25 14:01:00,39.0,28.0,29.90,NE,50,15.0,-999.0,64,-99.99,,,-99.99,,2013-02-25 20:01:00,
2013-02-25 14:11:00,39.0,28.0,29.90,NE,50,15.0,-999.0,64,-99.99,,,-99.99,,2013-02-25 20:11:00,
2013-02-25 14:21:00,37.0,28.0,29.90,NE,50,14.0,-999.0,69,-99.99,,,-99.99,,2013-02-25 20:21:00,
2013-02-25 14:31:00,39.0,28.0,29.90,NE,50,13.0,18.0,64,-99.99,,,-99.99,,2013-02-25 20:31:00,
2013-02-25 14:42:00,37.0,28.0,29.88,NE,40,14.0,-999.0,69,-99.99,,,-99.99,,2013-02-25 20:42:00,
2013-02-25 14:52:00,37.0,28.0,29.88,NE,40,15.0,-999.0,69,-99.99,,,-99.99,,2013-02-25 20:52:00,
2013-02-25 15:01:00,37.0,28.0,29.88,NE,40,15.0,-999.0,69,-99.99,,,-99.99,,2013-02-25 21:01:00,
2013-02-25 15:11:00,37.0,28.0,29.88,NE,40,15.0,-999.0,69,-99.99,,,-99.99,,2013-02-25 21:11:00,
2013-02-25 15:21:00,37.0,28.0,29.87,NNE,30,14.0,-999.0,69,-99.99,,,-99.99,,2013-02-25 21:21:00,
2013-02-25 15:31:00,37.0,28.0,29.87,NE,40,15.0,-999.0,69,-99.99,,,-99.99,,2013-02-25 21:31:00,
2013-02-25 15:42:00,37.0,28.0,29.87,NNE,30,14.0,-999.0,69,-99.99,,,-99.99,,2013-02-25 21:42:00,
2013-02-25 15:52:00,37.0,28.0,29.86,NNE,30,16.0,-999.0,69,-99.99,,,-99.99,,2013-02-25 21:52:00,
2013-02-25 16:01:00,37.0,28.0,29.86,NNE,30,16.0,-999.0,69,-99.99,,,-99.99,,2013-02-25 22:01:00,
2013-02-25 16:11:00,37.0,28.0,29.86,NNE,30,16.0,-999.0,69,-99.99,,,-99.99,,2013-02-25 22:11:00,
2013-02-25 16:21:00,36.0,28.0,29.87,NE,40,15.0,-999.0,74,-99.99,,,-99.99,,2013-02-25 22:21:00,
2013-02-25 16:32:00,36.0,28.0,29.87,NE,40,15.0,-999.0,74,-99.99,,,-99.99,,2013-02-25 22:32:00,
2013-02-25 16:42:00,36.0,30.0,29.88,NE,40,13.0,-999.0,80,-99.99,,,-99.99,,2013-02-25 22:42:00,
2013-02-25 16:52:00,36.0,30.0,29.87,NE,40,12.0,-999.0,80,-99.99,,,-99.99,,2013-02-25 22:52:00,
2013-02-25 17:01:00,36.0,30.0,29.87,NE,40,12.0,-999.0,80,-99.99,,,-99.99,,2013-02-25 23:01:00,
2013-02-25 17:11:00,36.0,30.0,29.87,NE,40,12.0,-999.0,80,-99.99,,,-99.99,,2013-02-25 23:11:00,
2013-02-25 17:22:00,36.0,30.0,29.86,NE,50,10.0,-999.0,80,-99.99,,,-99.99,,2013-02-25 23:22:00,
2013-02-25 17:31:00,34.0,30.0,29.86,NE,50,9.0,-999.0,86,-99.99,,,-99.99,,2013-02-25 23:31:00,
2013-02-25 17:42:00,34.0,30.0,29.85,NE,50,12.0,-999.0,86,-99.99,,,-99.99,,2013-02-25 23:42:00,
2013-02-25 17:52:00,34.0,30.0,29.84,NE,40,15.0,-999.0,86,-99.99,,,-99.99,,2013-02-25 23:52:00,
2013-02-25 18:01:00,34.0,30.0,29.84,NE,40,15.0,-999.0,86,-99.99,,,-99.99,,2013-02-26 00:01:00,
2013-02-25 18:11:00,34.0,30.0,29.84,NE,40,15.0,-999.0,86,-99.99,,,-99.99,,2013-02-26 00:11:00,
2013-02-25 18:21:00,36.0,30.0,29.83,NE,40,14.0,-999.0,80,-99.99,,,-99.99,,2013-02-26 00:21:00,
2013-02-25 18:32:00,34.0,30.0,29.84,NE,40,13.0,-999.0,86,-99.99,,,-99.99,,2013-02-26 00:32:00,
2013-02-25 18:42:00,36.0,30.0,29.85,NNE,30,10.0,-999.0,80,-99.99,,,-99.99,,2013-02-26 00:42:00,
2013-02-25 18:52:00,36.0,30.0,29.86,NNE,30,12.0,-999.0,80,-99.99,,,-99.99,,2013-02-26 00:52:00,
2013-02-25 19:02:00,36.0,30.0,29.86,NNE,30,12.0,-999.0,80,-99.99,,,-99.99,,2013-02-26 01:02:00,
2013-02-25 19:11:00,36.0,30.0,29.86,NNE,30,12.0,-999.0,80,-99.99,,,-99.99,,2013-02-26 01:11:00,
2013-02-25 19:21:00,36.0,30.0,29.87,NE,40,15.0,-999.0,80,-99.99,,,-99.99,,2013-02-26 01:21:00,
2013-02-25 19:31:00,36.0,30.0,29.84,NE,40,20.0,-999.0,80,-99.99,,,-99.99,,2013-02-26 01:31:00,
2013-02-25 19:42:00,34.0,30.0,29.85,NE,50,18.0,29.0,86,-99.99,,,-99.99,,2013-02-26 01:42:00,
2013-02-25 19:52:00,34.0,30.0,29.85,NE,50,15.0,-999.0,86,-99.99,,,-99.99,,2013-02-26 01:52:00,
2013-02-25 20:01:00,34.0,30.0,29.85,NE,50,15.0,-999.0,86,-99.99,,,-99.99,,2013-02-26 02:01:00,
2013-02-25 20:11:00,34.0,30.0,29.85,NE,50,15.0,-999.0,86,-99.99,,,-99.99,,2013-02-26 02:11:00,
2013-02-25 20:21:00,34.0,30.0,29.81,NE,50,20.0,25.0,86,-99.99,,,-99.99,,2013-02-26 02:21:00,
2013-02-25 20:32:00,34.0,32.0,29.81,NE,50,16.0,25.0,93,-99.99,,,-99.99,,2013-02-26 02:32:00,
2013-02-25 20:42:00,34.0,32.0,29.81,ENE,70,14.0,21.0,93,-99.99,,,-99.99,,2013-02-26 02:42:00,
2013-02-25 20:52:00,34.0,32.0,29.81,ENE,70,18.0,23.0,93,-99.99,,,-99.99,,2013-02-26 02:52:00,
2013-02-25 21:02:00,34.0,32.0,29.81,ENE,70,18.0,23.0,93,-99.99,,,-99.99,,2013-02-26 03:02:00,
2013-02-25 21:11:00,34.0,32.0,29.81,ENE,70,18.0,23.0,93,-99.99,,,-99.99,,2013-02-26 03:11:00,
2013-02-25 21:21:00,32.0,32.0,29.79,NE,50,20.0,25.0,100,-99.99,,,-99.99,,2013-02-26 03:21:00,
2013-02-25 21:32:00,32.0,32.0,29.79,NE,50,22.0,-999.0,100,-99.99,,,-99.99,,2013-02-26 03:32:00,
2013-02-25 21:42:00,32.0,32.0,29.78,NE,40,17.0,27.0,100,-99.99,,,-99.99,,2013-02-26 03:42:00,
2013-02-25 21:52:00,32.0,32.0,29.78,NE,40,16.0,-999.0,100,-99.99,,,-99.99,,2013-02-26 03:52:00,
2013-02-25 22:01:00,32.0,32.0,29.78,NE,40,16.0,-999.0,100,-99.99,,,-99.99,,2013-02-26 04:01:00,
2013-02-25 22:11:00,32.0,32.0,29.78,NE,40,16.0,-999.0,100,-99.99,,,-99.99,,2013-02-26 04:11:00,
2013-02-25 22:21:00,34.0,32.0,29.78,ENE,60,12.0,-999.0,93,-99.99,,,-99.99,,2013-02-26 04:21:00,
2013-02-25 22:32:00,34.0,32.0,29.77,NE,50,13.0,-999.0,93,-99.99,,,-99.99,,2013-02-26 04:32:00,
2013-02-25 22:42:00,34.0,30.0,29.76,ENE,60,14.0,18.0,86,-99.99,,,-99.99,,2013-02-26 04:42:00,
2013-02-25 22:52:00,34.0,30.0,29.75,NE,50,14.0,20.0,86,-99.99,,,-99.99,,2013-02-26 04:52:00,
2013-02-25 23:01:00,34.0,30.0,29.75,NE,50,14.0,20.0,86,-99.99,,,-99.99,,2013-02-26 05:01:00,
2013-02-25 23:11:00,34.0,30.0,29.75,NE,50,14.0,20.0,86,-99.99,,,-99.99,,2013-02-26 05:11:00,
2013-02-25 23:21:00,32.0,32.0,29.72,ENE,60,22.0,27.0,100,-99.99,,,-99.99,,2013-02-26 05:21:00,
2013-02-25 23:31:00,32.0,32.0,29.70,NE,50,16.0,28.0,100,-99.99,,,-99.99,,2013-02-26 05:31:00,
2013-02-25 23:43:00,32.0,32.0,29.69,NE,50,20.0,24.0,100,-99.99,,,-99.99,,2013-02-26 05:43:00,
2013-02-25 23:52:00,32.0,32.0,29.69,ENE,60,18.0,25.0,100,-99.99,,,-99.99,,2013-02-26 05:52:00,